createdAt,value
2023-05-21T00:00:27.411Z,0.00
2023-05-21T00:01:27.349Z,0.00
2023-05-21T00:02:27.332Z,0.00
2023-05-21T00:03:27.404Z,0.00
2023-05-21T00:04:27.351Z,0.00
2023-05-21T00:05:27.283Z,0.00
2023-05-21T00:06:27.457Z,0.00
2023-05-21T00:07:27.324Z,0.00
2023-05-21T00:08:27.238Z,0.00
2023-05-21T00:09:27.308Z,0.00
2023-05-21T00:10:27.458Z,0.00
2023-05-21T00:11:27.201Z,0.00
2023-05-21T00:12:27.208Z,0.00
2023-05-21T00:13:27.196Z,0.00
2023-05-21T00:14:27.254Z,0.00
2023-05-21T00:15:27.223Z,0.00
2023-05-21T00:16:27.356Z,0.00
2023-05-21T00:17:27.156Z,0.00
2023-05-21T00:18:27.167Z,0.00
2023-05-21T00:19:27.297Z,0.00
2023-05-21T00:20:27.176Z,0.00
2023-05-21T00:21:27.097Z,0.00
2023-05-21T00:22:27.097Z,0.00
2023-05-21T00:23:27.082Z,0.00
2023-05-21T00:24:27.143Z,0.00
2023-05-21T00:25:27.205Z,0.00
2023-05-21T00:26:27.109Z,0.00
2023-05-21T00:27:27.096Z,0.00
2023-05-21T00:28:27.083Z,0.00
2023-05-21T00:29:27.062Z,0.00
2023-05-21T00:30:27.119Z,0.00
2023-05-21T00:31:27.095Z,0.00
2023-05-21T00:32:27.048Z,0.00
2023-05-21T00:33:27.023Z,0.00
2023-05-21T00:34:27.104Z,0.00
2023-05-21T00:35:27.004Z,0.00
2023-05-21T00:36:27.077Z,0.00
2023-05-21T00:37:26.982Z,0.00
2023-05-21T00:38:27.046Z,0.00
2023-05-21T00:39:26.958Z,0.00
2023-05-21T00:40:26.940Z,0.00
2023-05-21T00:41:26.997Z,0.00
2023-05-21T00:42:26.785Z,0.00
2023-05-21T00:43:26.946Z,0.00
2023-05-21T00:44:26.927Z,0.00
2023-05-21T00:45:26.929Z,0.00
2023-05-21T00:46:27.065Z,0.00
2023-05-21T00:47:27.014Z,0.00
2023-05-21T00:48:26.896Z,0.00
2023-05-21T00:49:26.891Z,0.00
2023-05-21T00:50:26.969Z,0.00
2023-05-21T00:51:26.752Z,0.00
2023-05-21T00:52:27.069Z,0.00
2023-05-21T00:53:26.890Z,0.00
2023-05-21T00:54:26.786Z,0.00
2023-05-21T00:55:26.770Z,0.00
2023-05-21T00:56:26.826Z,0.00
2023-05-21T00:57:26.818Z,0.00
2023-05-21T00:58:26.818Z,0.00
2023-05-21T00:59:26.798Z,0.00
2023-05-21T01:00:26.728Z,0.00
2023-05-21T01:01:26.797Z,0.00
2023-05-21T01:02:26.793Z,0.00
2023-05-21T01:03:27.025Z,0.00
2023-05-21T01:04:26.741Z,0.00
2023-05-21T01:05:26.679Z,0.00
2023-05-21T01:06:26.714Z,0.00
2023-05-21T01:07:26.538Z,0.00
2023-05-21T01:08:26.781Z,0.00
2023-05-21T01:09:26.639Z,0.00
2023-05-21T01:10:26.648Z,0.00
2023-05-21T01:11:26.666Z,0.00
2023-05-21T01:12:26.614Z,0.00
2023-05-21T01:13:26.638Z,0.00
2023-05-21T01:14:26.641Z,0.00
2023-05-21T01:15:26.557Z,0.00
2023-05-21T01:16:26.603Z,0.00
2023-05-21T01:17:26.626Z,0.00
2023-05-21T01:18:26.764Z,0.00
2023-05-21T01:19:26.641Z,0.00
2023-05-21T01:20:26.591Z,0.00
2023-05-21T01:21:26.401Z,0.00
2023-05-21T01:22:26.517Z,0.00
2023-05-21T01:23:26.635Z,0.00
2023-05-21T01:24:26.550Z,0.00
2023-05-21T01:25:26.526Z,0.00
2023-05-21T01:26:26.445Z,0.00
2023-05-21T01:27:26.441Z,0.00
2023-05-21T01:28:26.444Z,0.00
2023-05-21T01:29:26.532Z,0.00
2023-05-21T01:30:26.542Z,0.00
2023-05-21T01:31:26.562Z,0.00
2023-05-21T01:32:26.493Z,0.00
2023-05-21T01:33:26.458Z,0.00
2023-05-21T01:34:26.405Z,0.00
2023-05-21T01:35:26.491Z,0.00
2023-05-21T01:36:26.408Z,0.00
2023-05-21T01:37:26.382Z,0.00
2023-05-21T01:38:26.394Z,0.00
2023-05-21T01:39:26.381Z,0.00
2023-05-21T01:40:26.391Z,0.00
2023-05-21T01:41:26.399Z,0.00
2023-05-21T01:42:26.266Z,0.00
2023-05-21T01:43:26.363Z,0.00
2023-05-21T01:44:26.348Z,0.00
2023-05-21T01:45:26.337Z,0.00
2023-05-21T01:46:26.478Z,0.00
2023-05-21T01:47:26.319Z,0.00
2023-05-21T01:48:26.292Z,0.00
2023-05-21T01:49:26.275Z,0.00
2023-05-21T01:50:26.277Z,0.00
2023-05-21T01:51:26.400Z,0.00
2023-05-21T01:52:26.239Z,0.00
2023-05-21T01:53:26.307Z,0.00
2023-05-21T01:54:26.222Z,0.00
2023-05-21T01:55:26.223Z,0.00
2023-05-21T01:56:26.189Z,0.00
2023-05-21T01:57:26.285Z,0.00
2023-05-21T01:58:26.045Z,0.00
2023-05-21T01:59:26.045Z,0.00
2023-05-21T02:00:26.100Z,0.00
2023-05-21T02:01:26.261Z,0.00
2023-05-21T02:02:26.159Z,0.00
2023-05-21T02:03:26.163Z,0.00
2023-05-21T02:04:26.060Z,0.00
2023-05-21T02:05:26.007Z,0.00
2023-05-21T02:06:26.127Z,0.00
2023-05-21T02:07:26.001Z,0.00
2023-05-21T02:08:26.036Z,0.00
2023-05-21T02:09:25.982Z,0.00
2023-05-21T02:10:25.928Z,0.00
2023-05-21T02:11:25.990Z,0.00
2023-05-21T02:12:25.949Z,0.00
2023-05-21T02:13:26.702Z,0.00
2023-05-21T02:14:25.897Z,0.00
2023-05-21T02:15:25.909Z,0.00
2023-05-21T02:16:25.844Z,0.00
2023-05-21T02:17:25.804Z,0.00
2023-05-21T02:18:26.102Z,0.00
2023-05-21T02:19:25.863Z,0.00
2023-05-21T02:20:25.914Z,0.00
2023-05-21T02:21:25.888Z,0.00
2023-05-21T02:22:25.854Z,0.00
2023-05-21T02:23:25.798Z,0.00
2023-05-21T02:24:25.879Z,0.00
2023-05-21T02:25:25.829Z,0.00
2023-05-21T02:26:25.825Z,0.00
2023-05-21T02:27:25.818Z,0.00
2023-05-21T02:28:25.808Z,0.00
2023-05-21T02:29:25.794Z,0.00
2023-05-21T02:30:25.801Z,0.00
2023-05-21T02:31:25.875Z,0.00
2023-05-21T02:32:25.831Z,0.00
2023-05-21T02:33:25.768Z,0.00
2023-05-21T02:34:25.841Z,0.00
2023-05-21T02:35:25.808Z,0.00
2023-05-21T02:36:25.814Z,0.00
2023-05-21T02:37:25.718Z,0.00
2023-05-21T02:38:25.709Z,0.00
2023-05-21T02:39:25.681Z,0.00
2023-05-21T02:40:25.683Z,0.00
2023-05-21T02:41:25.676Z,0.00
2023-05-21T02:42:25.742Z,0.00
2023-05-21T02:43:25.662Z,0.00
2023-05-21T02:44:25.657Z,0.00
2023-05-21T02:45:25.744Z,0.00
2023-05-21T02:46:25.748Z,0.00
2023-05-21T02:47:25.636Z,0.00
2023-05-21T02:48:25.661Z,1.00
2023-05-21T02:49:25.379Z,1.00
2023-05-21T02:50:25.518Z,1.00
2023-05-21T02:51:25.508Z,1.00
2023-05-21T02:52:25.400Z,1.00
2023-05-21T02:53:25.462Z,2.00
2023-05-21T02:54:25.434Z,2.00
2023-05-21T02:55:25.408Z,2.00
2023-05-21T02:56:25.469Z,2.00
2023-05-21T02:57:25.457Z,3.00
2023-05-21T02:58:25.475Z,1.00
2023-05-21T02:59:25.392Z,2.00
2023-05-21T03:00:25.389Z,2.00
2023-05-21T03:01:25.454Z,6.00
2023-05-21T03:02:25.530Z,8.00
2023-05-21T03:03:25.596Z,9.00
2023-05-21T03:04:25.403Z,5.00
2023-05-21T03:05:25.307Z,2.00
2023-05-21T03:06:25.316Z,9.00
2023-05-21T03:07:25.269Z,11.00
2023-05-21T03:08:25.358Z,11.00
2023-05-21T03:09:25.386Z,16.00
2023-05-21T03:10:25.314Z,15.00
2023-05-21T03:11:25.248Z,17.00
2023-05-21T03:12:25.269Z,18.00
2023-05-21T03:13:25.233Z,24.00
2023-05-21T03:14:25.302Z,27.00
2023-05-21T03:15:25.333Z,30.00
2023-05-21T03:16:25.220Z,34.00
2023-05-21T03:17:25.235Z,39.00
2023-05-21T03:18:25.072Z,37.00
2023-05-21T03:19:25.263Z,38.00
2023-05-21T03:20:25.243Z,41.00
2023-05-21T03:21:25.030Z,46.00
2023-05-21T03:22:25.210Z,50.00
2023-05-21T03:23:25.120Z,53.00
2023-05-21T03:24:25.108Z,56.00
2023-05-21T03:25:25.445Z,60.00
2023-05-21T03:26:25.102Z,63.00
2023-05-21T03:27:25.111Z,70.00
2023-05-21T03:28:25.088Z,68.00
2023-05-21T03:29:25.067Z,76.00
2023-05-21T03:30:25.062Z,77.00
2023-05-21T03:31:25.237Z,86.00
2023-05-21T03:32:25.253Z,90.00
2023-05-21T03:33:25.065Z,96.00
2023-05-21T03:34:24.977Z,98.00
2023-05-21T03:35:25.036Z,102.00
2023-05-21T03:36:25.134Z,111.00
2023-05-21T03:37:25.100Z,121.00
2023-05-21T03:38:25.001Z,130.00
2023-05-21T03:39:25.058Z,136.00
2023-05-21T03:40:24.957Z,141.00
2023-05-21T03:41:24.923Z,160.00
2023-05-21T03:42:25.146Z,165.00
2023-05-21T03:43:24.907Z,174.00
2023-05-21T03:44:24.956Z,187.00
2023-05-21T03:45:24.949Z,195.00
2023-05-21T03:46:24.961Z,203.00
2023-05-21T03:47:24.975Z,211.00
2023-05-21T03:48:24.922Z,217.00
2023-05-21T03:49:24.922Z,228.00
2023-05-21T03:50:24.833Z,245.00
2023-05-21T03:51:24.839Z,252.00
2023-05-21T03:52:24.911Z,259.00
2023-05-21T03:53:24.813Z,272.00
2023-05-21T03:54:24.798Z,276.00
2023-05-21T03:55:24.774Z,288.00
2023-05-21T03:56:24.766Z,294.00
2023-05-21T03:57:24.776Z,317.00
2023-05-21T03:58:24.880Z,330.00
2023-05-21T03:59:24.780Z,337.00
2023-05-21T04:00:24.761Z,347.00
2023-05-21T04:01:24.638Z,360.00
2023-05-21T04:02:24.855Z,372.00
2023-05-21T04:03:25.018Z,389.00
2023-05-21T04:04:24.822Z,401.00
2023-05-21T04:05:24.715Z,416.00
2023-05-21T04:06:24.725Z,429.00
2023-05-21T04:07:24.715Z,439.00
2023-05-21T04:08:24.697Z,450.00
2023-05-21T04:09:24.683Z,470.00
2023-05-21T04:10:24.754Z,484.00
2023-05-21T04:11:24.668Z,503.00
2023-05-21T04:12:24.674Z,511.00
2023-05-21T04:13:24.648Z,518.00
2023-05-21T04:14:24.645Z,520.00
2023-05-21T04:15:24.714Z,524.00
2023-05-21T04:16:24.762Z,534.00
2023-05-21T04:17:24.598Z,552.00
2023-05-21T04:18:24.559Z,581.00
2023-05-21T04:19:24.668Z,593.00
2023-05-21T04:20:24.544Z,604.00
2023-05-21T04:21:24.560Z,594.00
2023-05-21T04:22:24.562Z,601.00
2023-05-21T04:23:24.549Z,612.00
2023-05-21T04:24:24.540Z,614.00
2023-05-21T04:25:24.608Z,610.00
2023-05-21T04:26:24.439Z,618.00
2023-05-21T04:27:24.453Z,642.00
2023-05-21T04:28:24.445Z,660.00
2023-05-21T04:29:24.436Z,672.00
2023-05-21T04:30:24.510Z,682.00
2023-05-21T04:31:24.487Z,702.00
2023-05-21T04:32:24.506Z,718.00
2023-05-21T04:33:24.520Z,746.00
2023-05-21T04:34:24.401Z,761.00
2023-05-21T04:35:24.406Z,777.00
2023-05-21T04:36:24.483Z,790.00
2023-05-21T04:37:24.473Z,801.00
2023-05-21T04:38:24.377Z,812.00
2023-05-21T04:39:24.366Z,827.00
2023-05-21T04:40:24.458Z,828.00
2023-05-21T04:41:24.369Z,825.00
2023-05-21T04:42:24.343Z,825.00
2023-05-21T04:43:24.262Z,826.00
2023-05-21T04:44:24.279Z,822.00
2023-05-21T04:45:24.277Z,818.00
2023-05-21T04:46:24.388Z,822.00
2023-05-21T04:47:24.292Z,834.00
2023-05-21T04:48:24.277Z,849.00
2023-05-21T04:49:24.225Z,857.00
2023-05-21T04:50:24.289Z,860.00
2023-05-21T04:51:24.194Z,873.00
2023-05-21T04:52:24.273Z,889.00
2023-05-21T04:53:24.200Z,903.00
2023-05-21T04:54:24.289Z,921.00
2023-05-21T04:55:24.126Z,931.00
2023-05-21T04:56:24.199Z,951.00
2023-05-21T04:57:24.179Z,969.00
2023-05-21T04:58:24.243Z,1000.00
2023-05-21T04:59:24.139Z,1037.00
2023-05-21T05:00:23.944Z,1064.00
2023-05-21T05:01:24.066Z,1087.00
2023-05-21T05:02:24.105Z,1104.00
2023-05-21T05:03:24.266Z,1120.00
2023-05-21T05:04:24.047Z,1138.00
2023-05-21T05:05:24.043Z,1147.00
2023-05-21T05:06:24.042Z,1158.00
2023-05-21T05:07:24.067Z,1168.00
2023-05-21T05:08:24.086Z,1183.00
2023-05-21T05:09:24.014Z,1202.00
2023-05-21T05:10:24.008Z,1230.00
2023-05-21T05:11:24.002Z,1255.00
2023-05-21T05:12:23.980Z,1277.00
2023-05-21T05:13:24.082Z,1304.00
2023-05-21T05:14:24.024Z,1321.00
2023-05-21T05:15:23.969Z,1353.00
2023-05-21T05:16:24.030Z,1376.00
2023-05-21T05:17:23.995Z,1399.00
2023-05-21T05:18:23.921Z,1419.00
2023-05-21T05:19:24.010Z,1436.00
2023-05-21T05:20:24.042Z,1472.00
2023-05-21T05:21:23.928Z,1509.00
2023-05-21T05:22:23.865Z,1530.00
2023-05-21T05:23:23.865Z,1547.00
2023-05-21T05:24:23.995Z,1565.00
2023-05-21T05:25:23.868Z,1599.00
2023-05-21T05:26:23.857Z,1707.00
2023-05-21T05:27:23.863Z,1677.00
2023-05-21T05:28:23.790Z,1600.00
2023-05-21T05:29:23.776Z,1547.00
2023-05-21T05:30:23.866Z,1525.00
2023-05-21T05:31:23.922Z,1510.00
2023-05-21T05:32:23.826Z,1506.00
2023-05-21T05:33:23.809Z,1512.00
2023-05-21T05:34:23.803Z,1521.00
2023-05-21T05:35:23.741Z,1531.00
2023-05-21T05:36:23.612Z,1548.00
2023-05-21T05:37:23.613Z,1565.00
2023-05-21T05:38:23.635Z,1581.00
2023-05-21T05:39:23.653Z,1599.00
2023-05-21T05:40:23.566Z,1613.00
2023-05-21T05:41:23.604Z,1620.00
2023-05-21T05:42:23.536Z,1627.00
2023-05-21T05:43:23.546Z,1632.00
2023-05-21T05:44:23.520Z,1648.00
2023-05-21T05:45:23.461Z,1684.00
2023-05-21T05:46:23.772Z,1706.00
2023-05-21T05:47:23.556Z,1723.00
2023-05-21T05:48:23.448Z,1724.00
2023-05-21T05:49:23.465Z,1760.00
2023-05-21T05:50:23.438Z,1739.00
2023-05-21T05:51:23.445Z,1733.00
2023-05-21T05:52:23.543Z,1741.00
2023-05-21T05:53:23.425Z,1788.00
2023-05-21T05:54:23.392Z,1955.00
2023-05-21T05:55:23.404Z,1935.00
2023-05-21T05:56:23.504Z,1837.00
2023-05-21T05:57:23.491Z,1788.00
2023-05-21T05:58:23.575Z,1753.00
2023-05-21T05:59:23.455Z,1714.00
2023-05-21T06:00:23.446Z,1684.00
2023-05-21T06:01:23.459Z,1652.00
2023-05-21T06:02:23.531Z,1615.00
2023-05-21T06:03:23.562Z,1650.00
2023-05-21T06:04:23.389Z,1598.00
2023-05-21T06:05:23.430Z,1564.00
2023-05-21T06:06:23.457Z,1537.00
2023-05-21T06:07:23.321Z,1516.00
2023-05-21T06:08:23.399Z,1499.00
2023-05-21T06:09:23.262Z,1494.00
2023-05-21T06:10:23.363Z,1492.00
2023-05-21T06:11:23.366Z,1487.00
2023-05-21T06:12:23.437Z,1499.00
2023-05-21T06:13:23.352Z,1494.00
2023-05-21T06:14:23.260Z,1486.00
2023-05-21T06:15:23.334Z,1478.00
2023-05-21T06:16:23.380Z,1474.00
2023-05-21T06:17:23.343Z,1472.00
2023-05-21T06:18:23.294Z,1468.00
2023-05-21T06:19:23.331Z,1472.00
2023-05-21T06:20:23.363Z,1479.00
2023-05-21T06:21:23.267Z,1475.00
2023-05-21T06:22:25.489Z,1476.00
2023-05-21T06:23:23.235Z,1485.00
2023-05-21T06:24:23.117Z,1482.00
2023-05-21T06:25:23.104Z,1490.00
2023-05-21T06:26:23.074Z,1501.00
2023-05-21T06:27:23.302Z,1515.00
2023-05-21T06:28:23.208Z,1527.00
2023-05-21T06:29:23.038Z,1547.00
2023-05-21T06:30:23.205Z,1568.00
2023-05-21T06:31:23.163Z,1595.00
2023-05-21T06:32:23.357Z,1624.00
2023-05-21T06:33:23.286Z,1662.00
2023-05-21T06:34:22.996Z,1703.00
2023-05-21T06:35:23.117Z,1739.00
2023-05-21T06:36:23.179Z,1785.00
2023-05-21T06:37:25.249Z,1828.00
2023-05-21T06:38:23.169Z,1877.00
2023-05-21T06:39:22.913Z,1930.00
2023-05-21T06:40:23.091Z,1985.00
2023-05-21T06:41:23.011Z,2041.00
2023-05-21T06:42:23.017Z,2096.00
2023-05-21T06:43:23.005Z,2148.00
2023-05-21T06:44:23.084Z,2206.00
2023-05-21T06:45:22.997Z,2263.00
2023-05-21T06:46:23.059Z,2319.00
2023-05-21T06:47:22.941Z,2368.00
2023-05-21T06:48:22.810Z,2427.00
2023-05-21T06:49:23.053Z,2474.00
2023-05-21T06:50:23.150Z,2529.00
2023-05-21T06:51:22.914Z,2593.00
2023-05-21T06:52:22.808Z,2743.00
2023-05-21T06:53:22.974Z,2763.00
2023-05-21T06:54:23.647Z,2738.00
2023-05-21T06:55:22.928Z,2728.00
2023-05-21T06:56:23.082Z,2745.00
2023-05-21T06:57:22.923Z,2779.00
2023-05-21T06:58:22.800Z,2826.00
2023-05-21T06:59:22.904Z,2869.00
2023-05-21T07:00:22.838Z,2913.00
2023-05-21T07:01:22.982Z,2954.00
2023-05-21T07:02:22.783Z,3033.00
2023-05-21T07:03:22.943Z,3103.00
2023-05-21T07:04:22.786Z,3181.00
2023-05-21T07:05:22.699Z,3282.00
2023-05-21T07:06:22.690Z,3393.00
2023-05-21T07:07:22.677Z,3456.00
2023-05-21T07:08:22.676Z,3530.00
2023-05-21T07:09:22.740Z,3553.00
2023-05-21T07:10:22.591Z,3546.00
2023-05-21T07:11:22.616Z,3519.00
2023-05-21T07:12:22.592Z,3514.00
2023-05-21T07:13:22.550Z,3542.00
2023-05-21T07:14:22.562Z,3557.00
2023-05-21T07:15:22.597Z,3508.00
2023-05-21T07:16:22.597Z,3536.00
2023-05-21T07:17:22.638Z,3592.00
2023-05-21T07:18:22.542Z,3384.00
2023-05-21T07:19:22.639Z,3785.00
2023-05-21T07:20:22.493Z,3937.00
2023-05-21T07:21:22.537Z,4975.00
2023-05-21T07:22:22.539Z,3872.00
2023-05-21T07:23:22.547Z,3663.00
2023-05-21T07:24:22.492Z,4137.00
2023-05-21T07:25:22.474Z,3789.00
2023-05-21T07:26:22.486Z,4048.00
2023-05-21T07:27:25.870Z,3662.00
2023-05-21T07:28:22.384Z,3699.00
2023-05-21T07:29:22.413Z,3656.00
2023-05-21T07:30:22.406Z,3647.00
2023-05-21T07:31:22.454Z,3636.00
2023-05-21T07:32:22.475Z,3613.00
2023-05-21T07:33:22.520Z,3620.00
2023-05-21T07:34:22.416Z,3639.00
2023-05-21T07:35:22.390Z,3661.00
2023-05-21T07:36:22.423Z,3701.00
2023-05-21T07:37:22.389Z,3760.00
2023-05-21T07:38:22.344Z,3838.00
2023-05-21T07:39:22.409Z,3912.00
2023-05-21T07:40:22.304Z,4058.00
2023-05-21T07:41:22.457Z,4154.00
2023-05-21T07:42:22.437Z,4236.00
2023-05-21T07:43:22.408Z,4286.00
2023-05-21T07:44:22.306Z,4364.00
2023-05-21T07:45:22.294Z,4439.00
2023-05-21T07:46:22.334Z,4551.00
2023-05-21T07:47:22.316Z,4689.00
2023-05-21T07:48:22.353Z,4762.00
2023-05-21T07:49:22.271Z,5116.00
2023-05-21T07:50:22.379Z,5406.00
2023-05-21T07:51:22.229Z,5533.00
2023-05-21T07:52:22.306Z,5518.00
2023-05-21T07:53:22.254Z,5633.00
2023-05-21T07:54:22.228Z,5645.00
2023-05-21T07:55:22.193Z,5836.00
2023-05-21T07:56:22.300Z,6313.00
2023-05-21T07:57:22.179Z,5746.00
2023-05-21T07:58:22.218Z,5490.00
2023-05-21T07:59:22.117Z,5584.00
2023-05-21T08:00:22.315Z,5513.00
2023-05-21T08:01:22.109Z,5988.00
2023-05-21T08:02:22.282Z,5796.00
2023-05-21T08:03:22.211Z,7198.00
2023-05-21T08:04:22.183Z,7959.00
2023-05-21T08:05:22.073Z,12075.00
2023-05-21T08:06:22.235Z,9514.00
2023-05-21T08:07:22.031Z,8017.00
2023-05-21T08:08:22.201Z,8967.00
2023-05-21T08:09:22.044Z,9114.00
2023-05-21T08:10:22.240Z,8188.00
2023-05-21T08:11:22.052Z,7569.00
2023-05-21T08:12:22.086Z,6901.00
2023-05-21T08:13:21.964Z,5768.00
2023-05-21T08:14:22.081Z,7958.00
2023-05-21T08:15:21.969Z,7492.00
2023-05-21T08:16:22.146Z,7184.00
2023-05-21T08:17:22.031Z,7663.00
2023-05-21T08:18:22.029Z,9146.00
2023-05-21T08:19:22.107Z,7702.00
2023-05-21T08:20:22.060Z,6019.00
2023-05-21T08:21:22.007Z,5817.00
2023-05-21T08:22:21.975Z,6417.00
2023-05-21T08:23:22.004Z,6455.00
2023-05-21T08:24:21.946Z,6306.00
2023-05-21T08:25:22.095Z,5467.00
2023-05-21T08:26:21.813Z,5804.00
2023-05-21T08:27:21.863Z,6396.00
2023-05-21T08:28:21.957Z,5796.00
2023-05-21T08:29:22.025Z,5764.00
2023-05-21T08:30:21.996Z,5376.00
2023-05-21T08:31:21.890Z,5301.00
2023-05-21T08:32:21.889Z,5374.00
2023-05-21T08:33:21.896Z,5577.00
2023-05-21T08:34:21.845Z,5836.00
2023-05-21T08:35:21.859Z,5992.00
2023-05-21T08:36:22.030Z,6541.00
2023-05-21T08:37:21.900Z,6571.00
2023-05-21T08:38:21.857Z,9683.00
2023-05-21T08:39:21.817Z,9911.00
2023-05-21T08:40:21.898Z,10468.00
2023-05-21T08:41:21.810Z,10183.00
2023-05-21T08:42:32.853Z,9996.00
2023-05-21T08:43:21.799Z,10567.00
2023-05-21T08:44:21.754Z,11381.00
2023-05-21T08:45:21.672Z,10469.00
2023-05-21T08:46:21.824Z,10009.00
2023-05-21T08:47:21.929Z,9232.00
2023-05-21T08:48:21.721Z,9160.00
2023-05-21T08:49:21.616Z,8745.00
2023-05-21T08:50:21.724Z,8306.00
2023-05-21T08:51:21.737Z,8138.00
2023-05-21T08:52:21.560Z,8324.00
2023-05-21T08:53:28.032Z,8610.00
2023-05-21T08:54:21.592Z,9263.00
2023-05-21T08:55:21.496Z,8645.00
2023-05-21T08:56:21.459Z,8895.00
2023-05-21T08:57:21.728Z,10889.00
2023-05-21T08:58:21.696Z,12508.00
2023-05-21T08:59:21.725Z,13662.00
2023-05-21T09:00:21.591Z,10918.00
2023-05-21T09:01:23.398Z,12839.00
2023-05-21T09:02:21.627Z,16417.00
2023-05-21T09:03:21.703Z,16227.00
2023-05-21T09:04:22.002Z,21359.00
2023-05-21T09:05:21.554Z,17050.00
2023-05-21T09:06:21.506Z,17671.00
2023-05-21T09:07:21.527Z,17615.00
2023-05-21T09:08:21.634Z,17915.00
2023-05-21T09:09:21.474Z,20752.00
2023-05-21T09:10:21.526Z,17769.00
2023-05-21T09:11:21.485Z,22374.00
2023-05-21T09:12:21.532Z,26137.00
2023-05-21T09:13:21.548Z,27419.00
2023-05-21T09:14:21.563Z,28422.00
2023-05-21T09:15:21.443Z,21912.00
2023-05-21T09:16:21.418Z,24987.00
2023-05-21T09:17:21.432Z,21117.00
2023-05-21T09:18:21.389Z,20634.00
2023-05-21T09:19:21.504Z,19692.00
2023-05-21T09:20:21.367Z,23657.00
2023-05-21T09:21:21.383Z,22387.00
2023-05-21T09:22:21.364Z,24161.00
2023-05-21T09:23:21.364Z,19378.00
2023-05-21T09:24:21.359Z,23249.00
2023-05-21T09:25:21.434Z,22842.00
2023-05-21T09:26:21.396Z,20190.00
2023-05-21T09:27:21.285Z,16518.00
2023-05-21T09:28:21.310Z,15417.00
2023-05-21T09:29:21.327Z,12939.00
2023-05-21T09:30:25.474Z,10972.00
2023-05-21T09:31:21.283Z,15408.00
2023-05-21T09:32:21.138Z,18953.00
2023-05-21T09:33:21.402Z,15811.00
2023-05-21T09:34:21.375Z,12658.00
2023-05-21T09:35:21.281Z,10650.00
2023-05-21T09:36:21.300Z,11546.00
2023-05-21T09:38:21.181Z,10901.00
2023-05-21T09:39:21.184Z,10409.00
2023-05-21T09:40:21.178Z,8851.00
2023-05-21T09:41:22.259Z,19181.00
2023-05-21T09:42:21.190Z,18871.00
2023-05-21T09:43:21.198Z,15098.00
2023-05-21T09:44:21.148Z,14172.00
2023-05-21T09:45:21.179Z,15797.00
2023-05-21T09:46:21.233Z,16961.00
2023-05-21T09:47:21.250Z,20051.00
2023-05-21T09:48:21.093Z,20451.00
2023-05-21T09:49:21.130Z,17543.00
2023-05-21T09:50:21.093Z,17029.00
2023-05-21T09:51:21.055Z,17880.00
2023-05-21T09:52:21.169Z,19869.00
2023-05-21T09:53:21.034Z,21643.00
2023-05-21T09:54:21.060Z,20171.00
2023-05-21T09:55:20.946Z,21081.00
2023-05-21T09:56:21.056Z,18621.00
2023-05-21T09:57:21.118Z,20727.00
2023-05-21T09:58:21.071Z,22231.00
2023-05-21T09:59:20.927Z,20870.00
2023-05-21T10:00:21.025Z,25447.00
2023-05-21T10:01:20.863Z,25806.00
2023-05-21T10:02:21.002Z,23253.00
2023-05-21T10:03:21.026Z,26434.00
2023-05-21T10:04:21.075Z,22892.00
2023-05-21T10:05:20.817Z,18362.00
2023-05-21T10:06:20.918Z,14903.00
2023-05-21T10:07:20.784Z,17694.00
2023-05-21T10:08:20.791Z,14545.00
2023-05-21T10:09:20.765Z,15214.00
2023-05-21T10:10:20.764Z,20671.00
2023-05-21T10:11:20.923Z,18571.00
2023-05-21T10:12:20.814Z,22434.00
2023-05-21T10:13:20.710Z,20972.00
2023-05-21T10:14:20.700Z,22306.00
2023-05-21T10:15:20.795Z,26423.00
2023-05-21T10:16:20.749Z,22028.00
2023-05-21T10:17:20.705Z,22077.00
2023-05-21T10:18:20.761Z,26661.00
2023-05-21T10:19:20.690Z,27588.00
2023-05-21T10:20:20.652Z,33708.00
2023-05-21T10:21:20.673Z,30021.00
2023-05-21T10:22:20.633Z,29210.00
2023-05-21T10:23:20.858Z,29775.00
2023-05-21T10:24:20.755Z,30333.00
2023-05-21T10:25:20.837Z,21917.00
2023-05-21T10:26:20.725Z,27348.00
2023-05-21T10:27:20.715Z,20850.00
2023-05-21T10:28:20.804Z,14222.00
2023-05-21T10:29:20.817Z,10120.00
2023-05-21T10:30:20.787Z,4895.00
2023-05-21T10:31:20.698Z,14871.00
2023-05-21T10:32:20.759Z,23356.00
2023-05-21T10:33:20.841Z,17020.00
2023-05-21T10:34:20.732Z,15030.00
2023-05-21T10:35:20.690Z,12715.00
2023-05-21T10:36:20.571Z,10529.00
2023-05-21T10:37:20.614Z,12887.00
2023-05-21T10:38:20.677Z,18199.00
2023-05-21T10:39:20.634Z,12256.00
2023-05-21T10:40:20.555Z,17276.00
2023-05-21T10:41:20.428Z,23351.00
2023-05-21T10:42:20.440Z,17990.00
2023-05-21T10:43:20.536Z,11840.00
2023-05-21T10:44:20.556Z,11449.00
2023-05-21T10:45:20.436Z,9554.00
2023-05-21T10:46:20.463Z,8161.00
2023-05-21T10:47:20.415Z,8657.00
2023-05-21T10:48:20.621Z,7661.00
2023-05-21T10:49:20.363Z,6789.00
2023-05-21T10:50:20.463Z,6424.00
2023-05-21T10:51:20.408Z,6232.00
2023-05-21T10:52:20.350Z,6249.00
2023-05-21T10:53:20.324Z,6412.00
2023-05-21T10:54:20.468Z,6335.00
2023-05-21T10:55:20.550Z,6341.00
2023-05-21T10:56:20.336Z,6641.00
2023-05-21T10:57:20.551Z,6986.00
2023-05-21T10:58:20.501Z,7142.00
2023-05-21T10:59:20.465Z,6935.00
2023-05-21T11:00:20.326Z,6865.00
2023-05-21T11:01:20.370Z,6856.00
2023-05-21T11:02:20.381Z,6790.00
2023-05-21T11:03:20.355Z,6690.00
2023-05-21T11:04:20.218Z,6405.00
2023-05-21T11:05:20.191Z,6176.00
2023-05-21T11:06:20.231Z,5933.00
2023-05-21T11:07:20.377Z,5929.00
2023-05-21T11:08:20.161Z,5934.00
2023-05-21T11:09:20.414Z,5971.00
2023-05-21T11:10:20.173Z,6016.00
2023-05-21T11:11:20.155Z,5955.00
2023-05-21T11:12:20.420Z,5957.00
2023-05-21T11:13:20.356Z,6067.00
2023-05-21T11:14:20.932Z,6010.00
2023-05-21T11:15:20.074Z,5999.00
2023-05-21T11:16:20.189Z,6150.00
2023-05-21T11:17:20.182Z,6131.00
2023-05-21T11:18:20.084Z,6033.00
2023-05-21T11:19:20.325Z,5949.00
2023-05-21T11:20:20.269Z,5916.00
2023-05-21T11:21:20.247Z,5981.00
2023-05-21T11:22:20.065Z,5927.00
2023-05-21T11:23:20.168Z,5892.00
2023-05-21T11:24:20.003Z,5856.00
2023-05-21T11:25:20.258Z,5840.00
2023-05-21T11:26:20.116Z,5827.00
2023-05-21T11:27:20.270Z,5749.00
2023-05-21T11:28:20.237Z,5697.00
2023-05-21T11:29:20.130Z,5611.00
2023-05-21T11:30:20.120Z,5631.00
2023-05-21T11:31:20.201Z,5611.00
2023-05-21T11:32:20.131Z,5559.00
2023-05-21T11:33:20.103Z,5640.00
2023-05-21T11:34:20.299Z,5684.00
2023-05-21T11:35:20.128Z,5752.00
2023-05-21T11:36:20.017Z,5701.00
2023-05-21T11:37:19.994Z,5741.00
2023-05-21T11:38:20.153Z,5743.00
2023-05-21T11:39:19.996Z,5823.00
2023-05-21T11:40:20.075Z,5782.00
2023-05-21T11:41:20.026Z,5727.00
2023-05-21T11:42:19.981Z,5743.00
2023-05-21T11:43:20.060Z,5824.00
2023-05-21T11:44:20.151Z,5900.00
2023-05-21T11:45:20.016Z,5913.00
2023-05-21T11:46:20.022Z,5938.00
2023-05-21T11:47:19.960Z,6007.00
2023-05-21T11:48:19.896Z,6050.00
2023-05-21T11:49:19.961Z,6094.00
2023-05-21T11:50:20.020Z,6192.00
2023-05-21T11:51:20.098Z,6267.00
2023-05-21T11:52:19.901Z,6314.00
2023-05-21T11:53:19.852Z,6286.00
2023-05-21T11:54:19.824Z,6269.00
2023-05-21T11:55:19.988Z,6194.00
2023-05-21T11:56:20.049Z,6125.00
2023-05-21T11:57:19.972Z,6115.00
2023-05-21T11:58:19.825Z,6179.00
2023-05-21T11:59:19.858Z,6277.00
2023-05-21T12:00:19.880Z,6280.00
2023-05-21T12:01:19.872Z,6439.00
2023-05-21T12:02:19.925Z,6526.00
2023-05-21T12:03:19.930Z,6556.00
2023-05-21T12:04:19.813Z,6602.00
2023-05-21T12:05:19.789Z,6640.00
2023-05-21T12:06:19.878Z,6661.00
2023-05-21T12:07:19.762Z,6610.00
2023-05-21T12:08:19.779Z,6561.00
2023-05-21T12:09:19.653Z,6388.00
2023-05-21T12:10:19.671Z,6044.00
2023-05-21T12:11:19.716Z,5970.00
2023-05-21T12:12:19.650Z,5918.00
2023-05-21T12:13:19.827Z,5779.00
2023-05-21T12:14:19.650Z,5552.00
2023-05-21T12:15:19.734Z,5436.00
2023-05-21T12:16:19.770Z,5314.00
2023-05-21T12:17:19.777Z,5228.00
2023-05-21T12:18:19.645Z,5137.00
2023-05-21T12:19:19.617Z,5087.00
2023-05-21T12:20:19.632Z,5032.00
2023-05-21T12:21:19.712Z,4994.00
2023-05-21T12:22:19.482Z,4966.00
2023-05-21T12:23:19.748Z,4934.00
2023-05-21T12:24:19.573Z,4923.00